Hovedside
METAR-TAF:

METAR-TAF

Lufthavner :

Uppsala, Sverige

breddegrad: 59-53N, lengdegrad: 017-36E, høyde over havet: 21 m

Gjeldene værobservasjon

Denne rapporten ble laget for 15 minutter siden, klokken 04:50 UTC
Vind 5 kt fra Øst
Temperatur 8°C
Luftfuktighet 66%
Trykk 1019 hPa
Sikt 10 km eller mer

METAR: ESCM 250450Z AUTO 08005KT 9999 NCD 08/02 Q1019

Tid: 07:05 (05:05 UTC)

Varsel

Denne rapporten ble laget for 17 timer og 45 minutter siden, klokken 11:20 UTC
Varsel gyldig fra 24. klokken 12 UTC til 24. klokken 14 UTC
Vind 15 kt fra Sørøst med vindkast opp mot 25 kt
Sikt 10 km eller mer
ingen skyer under 1500 m og ingen bygeskyer

TAF: ESCM 241120Z 2412/2414 13015G25KT CAVOK RMK MIL

Værobservasjoner og værvarsel for over 4000 flyplasser (METAR- og TAF-rapporter).

Tilgjengelige stasjoner er representert av de røde og gule prikkene på kartet.

Hold musepekeren over prikken for å se navnet på stasjonen.

Klikk så for å se værobservasjoner og -varsler.

For å forandre kartet kan du klikke på den grønne knappen med svart kryss for å zoome inn, på den grønne knappen med strek for å zoome ut, eller på de grønne pilene for å se tilstøtende kart.


METAR-TAF: